Terminal Aerodrome Forecast
Issued by NWS Atlanta, GA

Home | Current Version | Previous Version | Text Only | Print | Product List | Glossary On
Versions: 1 2 3 4 5 6 7 8 9 10 11 12 13 14 15 16 17 18 19 20 21 22 23 24 25 26 27 28 29 30
000
FTUS42 KFFC 271125
TAFAHN
TAF
KAHN 271125Z 2712/2812 07004KT P6SM BKN030 OVC050
     FM271500 02005KT P6SM SCT035 SCT200
     FM271900 33005KT P6SM FEW050
     FM280200 00000KT P6SM SCT250
     FM280500 04007KT P6SM SCT120=

USA.gov is the U.S. government's official web portal to all federal, state and local government web resources and services.